sensor_id;sensor_type;location;lat;lon;timestamp;pressure;altitude;pressure_sealevel;temperature;humidity
66486;BME280;53303;47.476;8.084;2023-01-31T00:00:55;96229.50;;;18.85;32.08
66486;BME280;53303;47.476;8.084;2023-01-31T00:03:21;96244.66;;;18.90;31.87
66486;BME280;53303;47.476;8.084;2023-01-31T00:05:47;96237.59;;;18.89;32.01
66486;BME280;53303;47.476;8.084;2023-01-31T00:08:12;96243.88;;;18.89;32.00
66486;BME280;53303;47.476;8.084;2023-01-31T00:10:39;96235.03;;;18.85;32.01
66486;BME280;53303;47.476;8.084;2023-01-31T00:13:07;96242.09;;;18.86;32.09
66486;BME280;53303;47.476;8.084;2023-01-31T00:15:35;96246.94;;;18.91;31.86
66486;BME280;53303;47.476;8.084;2023-01-31T00:18:00;96235.03;;;18.85;32.15
66486;BME280;53303;47.476;8.084;2023-01-31T00:20:28;96221.19;;;18.85;31.95
66486;BME280;53303;47.476;8.084;2023-01-31T00:22:53;96237.88;;;18.91;32.08
66486;BME280;53303;47.476;8.084;2023-01-31T00:25:19;96231.31;;;18.88;31.86
66486;BME280;53303;47.476;8.084;2023-01-31T00:27:44;96230.34;;;18.91;31.93
66486;BME280;53303;47.476;8.084;2023-01-31T00:30:12;96218.91;;;18.83;31.92
66486;BME280;53303;47.476;8.084;2023-01-31T00:32:39;96226.81;;;18.91;31.99
66486;BME280;53303;47.476;8.084;2023-01-31T00:35:05;96220.53;;;18.90;31.94
66486;BME280;53303;47.476;8.084;2023-01-31T00:37:31;96217.47;;;18.88;31.69
66486;BME280;53303;47.476;8.084;2023-01-31T00:39:56;96215.19;;;18.87;31.97
66486;BME280;53303;47.476;8.084;2023-01-31T00:42:21;96215.00;;;18.90;31.83
66486;BME280;53303;47.476;8.084;2023-01-31T00:44:47;96205.66;;;18.88;31.82
66486;BME280;53303;47.476;8.084;2023-01-31T00:47:14;96211.19;;;18.88;32.01
66486;BME280;53303;47.476;8.084;2023-01-31T00:49:40;96213.19;;;18.87;31.96
66486;BME280;53303;47.476;8.084;2023-01-31T00:52:05;96213.19;;;18.87;32.06
66486;BME280;53303;47.476;8.084;2023-01-31T00:54:31;96207.66;;;18.87;31.88
66486;BME280;53303;47.476;8.084;2023-01-31T00:56:56;96201.84;;;18.85;31.87
66486;BME280;53303;47.476;8.084;2023-01-31T00:59:22;96198.13;;;18.88;32.03
66486;BME280;53303;47.476;8.084;2023-01-31T01:01:47;96204.59;;;18.85;31.76
66486;BME280;53303;47.476;8.084;2023-01-31T01:04:15;96211.47;;;18.90;31.80
66486;BME280;53303;47.476;8.084;2023-01-31T01:06:43;96215.75;;;18.91;31.85
66486;BME280;53303;47.476;8.084;2023-01-31T01:09:10;96212.50;;;18.92;31.93
66486;BME280;53303;47.476;8.084;2023-01-31T01:11:38;96211.75;;;18.92;31.92
66486;BME280;53303;47.476;8.084;2023-01-31T01:14:04;96201.91;;;18.91;31.76
66486;BME280;53303;47.476;8.084;2023-01-31T01:16:36;96205.47;;;18.91;31.76
66486;BME280;53303;47.476;8.084;2023-01-31T01:19:04;96213.75;;;18.91;31.95
66486;BME280;53303;47.476;8.084;2023-01-31T01:21:31;96211.75;;;18.92;31.94
66486;BME280;53303;47.476;8.084;2023-01-31T01:24:00;96212.97;;;18.91;31.92
66486;BME280;53303;47.476;8.084;2023-01-31T01:26:29;96215.75;;;18.91;31.72
66486;BME280;53303;47.476;8.084;2023-01-31T01:28:56;96216.53;;;18.91;32.04
66486;BME280;53303;47.476;8.084;2023-01-31T01:31:22;96206.97;;;18.92;31.72
66486;BME280;53303;47.476;8.084;2023-01-31T01:33:58;96215.25;;;18.92;31.89
66486;BME280;53303;47.476;8.084;2023-01-31T01:36:25;96215.75;;;18.91;31.95
66486;BME280;53303;47.476;8.084;2023-01-31T01:38:51;96200.69;;;18.92;31.82
66486;BME280;53303;47.476;8.084;2023-01-31T01:41:17;96181.53;;;18.88;31.74
66486;BME280;53303;47.476;8.084;2023-01-31T01:43:53;96195.16;;;18.92;31.94
66486;BME280;53303;47.476;8.084;2023-01-31T01:46:38;96204.69;;;18.91;31.85
66486;BME280;53303;47.476;8.084;2023-01-31T01:51:43;96200.41;;;18.90;31.91
66486;BME280;53303;47.476;8.084;2023-01-31T01:54:16;96200.59;;;18.86;31.70
66486;BME280;53303;47.476;8.084;2023-01-31T01:56:47;96205.47;;;18.91;31.91
66486;BME280;53303;47.476;8.084;2023-01-31T01:59:22;96206.22;;;18.92;31.92
66486;BME280;53303;47.476;8.084;2023-01-31T02:01:49;96208.97;;;18.92;31.88
66486;BME280;53303;47.476;8.084;2023-01-31T02:04:24;96220.03;;;18.92;31.91
66486;BME280;53303;47.476;8.084;2023-01-31T02:06:52;96208.91;;;18.86;31.94
66486;BME280;53303;47.476;8.084;2023-01-31T02:09:27;96212.22;;;18.90;31.76
66486;BME280;53303;47.476;8.084;2023-01-31T02:11:55;96211.00;;;18.91;31.86
66486;BME280;53303;47.476;8.084;2023-01-31T02:14:24;96194.41;;;18.91;31.89
66486;BME280;53303;47.476;8.084;2023-01-31T02:16:49;96191.63;;;18.91;31.86
66486;BME280;53303;47.476;8.084;2023-01-31T02:19:46;96189.53;;;18.86;31.91
66486;BME280;53303;47.476;8.084;2023-01-31T02:22:39;96183.72;;;18.84;31.91
66486;BME280;53303;47.476;8.084;2023-01-31T02:38:54;96215.94;;;18.87;31.84
66486;BME280;53303;47.476;8.084;2023-01-31T02:43:56;96215.00;;;18.90;31.89
66486;BME280;53303;47.476;8.084;2023-01-31T02:46:57;96212.69;;;18.89;31.74
66486;BME280;53303;47.476;8.084;2023-01-31T02:49:48;96214.91;;;18.85;31.72
66486;BME280;53303;47.476;8.084;2023-01-31T02:54:58;96204.31;;;18.83;31.94
66486;BME280;53303;47.476;8.084;2023-01-31T02:57:44;96205.94;;;18.90;31.75
66486;BME280;53303;47.476;8.084;2023-01-31T03:00:11;96198.31;;;18.85;31.89
66486;BME280;53303;47.476;8.084;2023-01-31T03:02:39;96205.94;;;18.90;31.77
66486;BME280;53303;47.476;8.084;2023-01-31T03:05:04;96201.63;;;18.89;31.80
66486;BME280;53303;47.476;8.084;2023-01-31T03:07:34;96190.03;;;18.85;31.69
66486;BME280;53303;47.476;8.084;2023-01-31T03:10:18;96197.84;;;18.86;31.69
66486;BME280;53303;47.476;8.084;2023-01-31T03:15:40;96212.97;;;18.91;31.91
66486;BME280;53303;47.476;8.084;2023-01-31T03:18:41;96219.50;;;18.88;31.90
66486;BME280;53303;47.476;8.084;2023-01-31T03:21:15;96219.75;;;18.90;31.75
66486;BME280;53303;47.476;8.084;2023-01-31T03:23:48;96227.59;;;18.91;31.95
66486;BME280;53303;47.476;8.084;2023-01-31T03:26:16;96223.47;;;18.87;31.69
66486;BME280;53303;47.476;8.084;2023-01-31T03:28:45;96223.00;;;18.88;31.60
66486;BME280;53303;47.476;8.084;2023-01-31T03:31:22;96215.75;;;18.91;31.70
66486;BME280;53303;47.476;8.084;2023-01-31T03:33:55;96219.97;;;18.86;31.64
66486;BME280;53303;47.476;8.084;2023-01-31T03:36:37;96226.53;;;18.89;31.79
66486;BME280;53303;47.476;8.084;2023-01-31T03:42:01;96233.13;;;18.91;31.85
66486;BME280;53303;47.476;8.084;2023-01-31T03:47:16;96229.56;;;18.76;31.94
66486;BME280;53303;47.476;8.084;2023-01-31T03:49:46;96231.66;;;18.81;31.73
66486;BME280;53303;47.476;8.084;2023-01-31T03:52:22;96233.78;;;18.86;31.67
66486;BME280;53303;47.476;8.084;2023-01-31T03:55:12;96234.00;;;18.82;31.50
66486;BME280;53303;47.476;8.084;2023-01-31T03:57:41;96237.59;;;18.89;31.84
66486;BME280;53303;47.476;8.084;2023-01-31T04:00:12;96241.09;;;18.89;31.94
66486;BME280;53303;47.476;8.084;2023-01-31T04:02:38;96233.78;;;18.86;31.95
66486;BME280;53303;47.476;8.084;2023-01-31T04:05:07;96239.88;;;18.90;31.74
66486;BME280;53303;47.476;8.084;2023-01-31T04:07:34;96240.34;;;18.89;31.79
66486;BME280;53303;47.476;8.084;2023-01-31T04:10:02;96239.59;;;18.88;31.81
66486;BME280;53303;47.476;8.084;2023-01-31T04:12:28;96244.94;;;18.92;31.74
66486;BME280;53303;47.476;8.084;2023-01-31T04:14:54;96236.34;;;18.90;31.76
66486;BME280;53303;47.476;8.084;2023-01-31T04:17:19;96232.53;;;18.87;31.75
66486;BME280;53303;47.476;8.084;2023-01-31T04:19:45;96237.59;;;18.89;31.74
66486;BME280;53303;47.476;8.084;2023-01-31T04:22:10;96248.44;;;18.92;31.98
66486;BME280;53303;47.476;8.084;2023-01-31T04:24:36;96234.06;;;18.88;31.73
66486;BME280;53303;47.476;8.084;2023-01-31T04:27:01;96232.53;;;18.87;31.86
66486;BME280;53303;47.476;8.084;2023-01-31T04:29:26;96232.81;;;18.89;31.67
66486;BME280;53303;47.476;8.084;2023-01-31T04:31:52;96233.13;;;18.91;31.88
66486;BME280;53303;47.476;8.084;2023-01-31T04:34:17;96230.03;;;18.89;31.84
66486;BME280;53303;47.476;8.084;2023-01-31T04:36:43;96231.09;;;18.92;31.79
66486;BME280;53303;47.476;8.084;2023-01-31T04:39:09;96229.09;;;18.92;31.72
66486;BME280;53303;47.476;8.084;2023-01-31T04:41:37;96235.88;;;18.91;31.69
66486;BME280;53303;47.476;8.084;2023-01-31T04:44:02;96240.16;;;18.92;31.71
66486;BME280;53303;47.476;8.084;2023-01-31T04:46:30;96238.66;;;18.91;31.54
66486;BME280;53303;47.476;8.084;2023-01-31T04:48:58;96244.94;;;18.92;31.75
66486;BME280;53303;47.476;8.084;2023-01-31T04:51:23;96237.88;;;18.91;31.58
66486;BME280;53303;47.476;8.084;2023-01-31T04:53:49;96244.38;;;18.88;31.65
66486;BME280;53303;47.476;8.084;2023-01-31T04:56:14;96258.97;;;18.88;31.88
66486;BME280;53303;47.476;8.084;2023-01-31T04:58:40;96249.91;;;18.88;31.68
66486;BME280;53303;47.476;8.084;2023-01-31T05:01:06;96258.75;;;18.92;31.94
66486;BME280;53303;47.476;8.084;2023-01-31T05:03:32;96253.44;;;18.88;31.45
66486;BME280;53303;47.476;8.084;2023-01-31T05:05:57;96264.75;;;18.90;31.47
66486;BME280;53303;47.476;8.084;2023-01-31T05:08:27;96268.75;;;18.89;31.41
66486;BME280;53303;47.476;8.084;2023-01-31T05:11:00;96271.25;;;18.87;31.54
66486;BME280;53303;47.476;8.084;2023-01-31T05:13:27;96269.25;;;18.88;31.29
66486;BME280;53303;47.476;8.084;2023-01-31T05:15:57;96268.19;;;18.85;31.39
66486;BME280;53303;47.476;8.084;2023-01-31T05:18:23;96273.81;;;18.91;31.42
66486;BME280;53303;47.476;8.084;2023-01-31T05:20:49;96262.00;;;18.90;31.49
66486;BME280;53303;47.476;8.084;2023-01-31T05:23:17;96266.59;;;18.93;31.36
66486;BME280;53303;47.476;8.084;2023-01-31T05:25:43;96270.84;;;18.94;31.26
66486;BME280;53303;47.476;8.084;2023-01-31T05:28:10;96272.38;;;18.95;31.54
66486;BME280;53303;47.476;8.084;2023-01-31T05:30:36;96271.91;;;18.97;31.29
66486;BME280;53303;47.476;8.084;2023-01-31T05:33:03;96269.91;;;18.97;31.35
66486;BME280;53303;47.476;8.084;2023-01-31T05:35:29;96269.16;;;18.97;31.41
66486;BME280;53303;47.476;8.084;2023-01-31T05:37:55;96258.00;;;18.91;31.29
66486;BME280;53303;47.476;8.084;2023-01-31T05:40:21;96263.13;;;18.98;31.34
66486;BME280;53303;47.476;8.084;2023-01-31T05:42:56;96258.56;;;18.95;31.33
66486;BME280;53303;47.476;8.084;2023-01-31T05:45:24;96258.56;;;18.95;31.33
66486;BME280;53303;47.476;8.084;2023-01-31T05:47:52;96263.13;;;18.98;31.40
66486;BME280;53303;47.476;8.084;2023-01-31T05:50:18;96261.88;;;18.99;31.23
66486;BME280;53303;47.476;8.084;2023-01-31T05:52:55;96260.38;;;18.98;31.26
66486;BME280;53303;47.476;8.084;2023-01-31T05:55:21;96261.13;;;18.99;31.40
66486;BME280;53303;47.476;8.084;2023-01-31T05:57:47;96265.41;;;19.00;31.37
66486;BME280;53303;47.476;8.084;2023-01-31T06:00:13;96273.69;;;19.00;31.40
66486;BME280;53303;47.476;8.084;2023-01-31T06:02:40;96274.69;;;18.97;31.57
66486;BME280;53303;47.476;8.084;2023-01-31T06:05:07;96276.19;;;18.98;31.09
66486;BME280;53303;47.476;8.084;2023-01-31T06:07:33;96282.00;;;19.00;31.30
66486;BME280;53303;47.476;8.084;2023-01-31T06:09:58;96276.66;;;18.96;31.17
66486;BME280;53303;47.476;8.084;2023-01-31T06:12:23;96275.91;;;18.96;31.39
66486;BME280;53303;47.476;8.084;2023-01-31T06:14:49;96277.44;;;18.97;31.22
66486;BME280;53303;47.476;8.084;2023-01-31T06:17:15;96278.94;;;18.98;31.15
66486;BME280;53303;47.476;8.084;2023-01-31T06:19:40;96275.44;;;18.97;31.25
66486;BME280;53303;47.476;8.084;2023-01-31T06:22:08;96279.22;;;19.00;31.17
66486;BME280;53303;47.476;8.084;2023-01-31T06:24:36;96281.25;;;18.99;31.04
66486;BME280;53303;47.476;8.084;2023-01-31T06:27:01;96274.19;;;18.98;31.31
66486;BME280;53303;47.476;8.084;2023-01-31T06:29:27;96273.22;;;19.01;31.27
66486;BME280;53303;47.476;8.084;2023-01-31T06:31:52;96269.16;;;18.97;31.51
66486;BME280;53303;47.476;8.084;2023-01-31T06:34:18;96270.47;;;19.01;31.24
66486;BME280;53303;47.476;8.084;2023-01-31T06:36:44;96278.00;;;19.01;31.10
66486;BME280;53303;47.476;8.084;2023-01-31T06:39:13;96277.72;;;18.99;31.38
66486;BME280;53303;47.476;8.084;2023-01-31T06:41:38;96286.03;;;18.99;31.18
66486;BME280;53303;47.476;8.084;2023-01-31T06:44:04;96290.28;;;19.00;31.21
66486;BME280;53303;47.476;8.084;2023-01-31T06:46:29;96292.59;;;19.01;31.21
66486;BME280;53303;47.476;8.084;2023-01-31T06:48:57;96302.41;;;19.02;31.16
66486;BME280;53303;47.476;8.084;2023-01-31T06:51:22;96300.13;;;19.01;31.32
66486;BME280;53303;47.476;8.084;2023-01-31T06:53:50;96310.16;;;18.98;31.38
66486;BME280;53303;47.476;8.084;2023-01-31T06:56:17;96307.94;;;19.02;31.20
66486;BME280;53303;47.476;8.084;2023-01-31T06:58:42;96309.97;;;19.02;31.25
66486;BME280;53303;47.476;8.084;2023-01-31T07:01:11;96307.19;;;19.02;31.21
66486;BME280;53303;47.476;8.084;2023-01-31T07:03:37;96291.94;;;18.92;31.23
66486;BME280;53303;47.476;8.084;2023-01-31T07:06:04;96309.47;;;19.03;31.14
66486;BME280;53303;47.476;8.084;2023-01-31T07:08:30;96310.72;;;19.02;31.26
66486;BME280;53303;47.476;8.084;2023-01-31T07:10:56;96312.41;;;19.00;31.13
66486;BME280;53303;47.476;8.084;2023-01-31T07:13:22;96316.25;;;19.02;31.13
66486;BME280;53303;47.476;8.084;2023-01-31T07:15:48;96316.25;;;19.02;31.04
66486;BME280;53303;47.476;8.084;2023-01-31T07:18:13;96310.91;;;18.99;31.06
66486;BME280;53303;47.476;8.084;2023-01-31T07:20:41;96325.31;;;19.03;31.01
66486;BME280;53303;47.476;8.084;2023-01-31T07:23:09;96312.22;;;19.03;31.18
66486;BME280;53303;47.476;8.084;2023-01-31T07:25:34;96316.25;;;19.02;31.12
66486;BME280;53303;47.476;8.084;2023-01-31T07:28:01;96326.06;;;19.03;31.03
66486;BME280;53303;47.476;8.084;2023-01-31T07:30:27;96316.16;;;18.97;31.09
66486;BME280;53303;47.476;8.084;2023-01-31T07:32:53;96323.47;;;19.00;31.02
66486;BME280;53303;47.476;8.084;2023-01-31T07:35:19;96331.59;;;19.03;31.10
66486;BME280;53303;47.476;8.084;2023-01-31T07:37:45;96326.25;;;19.00;31.04
66486;BME280;53303;47.476;8.084;2023-01-31T07:40:14;96326.06;;;19.03;31.30
66486;BME280;53303;47.476;8.084;2023-01-31T07:42:42;96319.00;;;19.02;31.18
66486;BME280;53303;47.476;8.084;2023-01-31T07:45:10;96308.34;;;18.95;31.12
66486;BME280;53303;47.476;8.084;2023-01-31T07:47:36;96323.22;;;18.98;31.22
66486;BME280;53303;47.476;8.084;2023-01-31T07:50:02;96322.25;;;19.01;30.99
66486;BME280;53303;47.476;8.084;2023-01-31T07:52:27;96319.00;;;19.02;30.99
66486;BME280;53303;47.476;8.084;2023-01-31T07:54:55;96316.25;;;19.02;31.12
66486;BME280;53303;47.476;8.084;2023-01-31T07:57:20;96308.44;;;19.01;31.17
66486;BME280;53303;47.476;8.084;2023-01-31T07:59:46;96315.50;;;19.02;30.78
66486;BME280;53303;47.476;8.084;2023-01-31T08:02:12;96314.72;;;19.01;31.04
66486;BME280;53303;47.476;8.084;2023-01-31T08:04:56;96314.72;;;19.01;30.98
66486;BME280;53303;47.476;8.084;2023-01-31T08:07:21;96319.00;;;19.02;30.91
66486;BME280;53303;47.476;8.084;2023-01-31T08:09:47;96329.31;;;19.02;31.10
66486;BME280;53303;47.476;8.084;2023-01-31T08:12:14;96329.78;;;19.00;31.04
66486;BME280;53303;47.476;8.084;2023-01-31T08:14:40;96322.25;;;19.01;30.95
66486;BME280;53303;47.476;8.084;2023-01-31T08:17:05;96319.69;;;18.97;30.89
66486;BME280;53303;47.476;8.084;2023-01-31T08:19:33;96314.25;;;19.03;30.86
66486;BME280;53303;47.476;8.084;2023-01-31T08:21:59;96314.25;;;19.03;30.77
66486;BME280;53303;47.476;8.084;2023-01-31T08:24:25;96314.91;;;18.98;30.92
66486;BME280;53303;47.476;8.084;2023-01-31T08:26:50;96316.25;;;19.02;30.91
66486;BME280;53303;47.476;8.084;2023-01-31T08:29:18;96323.47;;;19.00;30.99
66486;BME280;53303;47.476;8.084;2023-01-31T08:31:43;96330.06;;;19.02;30.78
66486;BME280;53303;47.476;8.084;2023-01-31T08:34:11;96332.84;;;19.02;30.82
66486;BME280;53303;47.476;8.084;2023-01-31T08:36:36;96332.09;;;19.02;30.99
66486;BME280;53303;47.476;8.084;2023-01-31T08:39:02;96339.59;;;19.01;30.65
66486;BME280;53303;47.476;8.084;2023-01-31T08:41:29;96333.03;;;18.99;30.81
66486;BME280;53303;47.476;8.084;2023-01-31T08:43:57;96335.34;;;19.00;30.81
66486;BME280;53303;47.476;8.084;2023-01-31T08:46:29;96337.13;;;19.03;30.75
66486;BME280;53303;47.476;8.084;2023-01-31T08:48:55;96328.75;;;18.98;30.87
66486;BME280;53303;47.476;8.084;2023-01-31T08:51:20;96334.06;;;19.01;30.79
66486;BME280;53303;47.476;8.084;2023-01-31T08:53:47;96332.38;;;19.04;30.72
66486;BME280;53303;47.476;8.084;2023-01-31T08:56:13;96325.50;;;18.99;30.86
66486;BME280;53303;47.476;8.084;2023-01-31T08:58:41;96329.31;;;19.02;30.81
66486;BME280;53303;47.476;8.084;2023-01-31T09:01:09;96326.25;;;19.00;30.85
66486;BME280;53303;47.476;8.084;2023-01-31T09:03:35;96311.66;;;18.99;30.79
66486;BME280;53303;47.476;8.084;2023-01-31T09:06:05;96309.19;;;19.01;30.74
66486;BME280;53303;47.476;8.084;2023-01-31T09:08:31;96307.94;;;19.02;30.74
66486;BME280;53303;47.476;8.084;2023-01-31T09:10:57;96306.63;;;18.98;30.69
66486;BME280;53303;47.476;8.084;2023-01-31T09:13:29;96326.06;;;19.03;30.84
66486;BME280;53303;47.476;8.084;2023-01-31T09:15:59;96321.78;;;19.02;30.61
66486;BME280;53303;47.476;8.084;2023-01-31T09:18:25;96321.22;;;18.98;30.63
66486;BME280;53303;47.476;8.084;2023-01-31T09:20:53;96326.56;;;19.02;30.75
66486;BME280;53303;47.476;8.084;2023-01-31T09:23:19;96338.66;;;19.05;30.73
66486;BME280;53303;47.476;8.084;2023-01-31T09:25:54;96332.56;;;19.00;30.68
66486;BME280;53303;47.476;8.084;2023-01-31T09:28:21;96332.84;;;19.02;30.65
66486;BME280;53303;47.476;8.084;2023-01-31T09:30:47;96328.53;;;19.01;30.79
66486;BME280;53303;47.476;8.084;2023-01-31T09:33:15;96320.53;;;19.03;30.67
66486;BME280;53303;47.476;8.084;2023-01-31T09:35:41;96332.38;;;19.04;30.72
66486;BME280;53303;47.476;8.084;2023-01-31T09:38:08;96339.13;;;19.03;30.68
66486;BME280;53303;47.476;8.084;2023-01-31T09:40:37;96344.19;;;19.05;30.88
66486;BME280;53303;47.476;8.084;2023-01-31T09:43:05;96338.09;;;19.00;30.55
66486;BME280;53303;47.476;8.084;2023-01-31T09:45:34;96349.72;;;19.05;30.74
66486;BME280;53303;47.476;8.084;2023-01-31T09:48:01;96344.19;;;19.05;30.75
66486;BME280;53303;47.476;8.084;2023-01-31T09:53:03;96339.88;;;19.03;30.71
66486;BME280;53303;47.476;8.084;2023-01-31T09:55:39;96344.19;;;19.05;30.52
66486;BME280;53303;47.476;8.084;2023-01-31T10:01:20;96337.31;;;19.00;30.63
66486;BME280;53303;47.476;8.084;2023-01-31T10:06:31;96343.63;;;19.00;30.68
66486;BME280;53303;47.476;8.084;2023-01-31T10:09:04;96339.41;;;19.05;30.65
66486;BME280;53303;47.476;8.084;2023-01-31T10:11:45;96345.72;;;19.06;30.79
66486;BME280;53303;47.476;8.084;2023-01-31T10:17:06;96333.59;;;19.03;30.74
66486;BME280;53303;47.476;8.084;2023-01-31T10:19:43;96323.28;;;19.03;30.67
66486;BME280;53303;47.476;8.084;2023-01-31T10:22:31;96318.25;;;19.02;30.75
66486;BME280;53303;47.476;8.084;2023-01-31T10:25:07;96327.13;;;19.06;30.86
66486;BME280;53303;47.476;8.084;2023-01-31T10:27:47;96324.81;;;19.05;30.78
66486;BME280;53303;47.476;8.084;2023-01-31T10:30:17;96320.84;;;19.06;30.78
66486;BME280;53303;47.476;8.084;2023-01-31T10:32:50;96327.88;;;19.07;30.70
66486;BME280;53303;47.476;8.084;2023-01-31T10:35:23;96334.47;;;19.09;30.56
66486;BME280;53303;47.476;8.084;2023-01-31T10:37:54;96326.44;;;18.96;30.77
66486;BME280;53303;47.476;8.084;2023-01-31T10:40:27;96328.53;;;19.01;30.87
66486;BME280;53303;47.476;8.084;2023-01-31T10:45:42;96327.88;;;19.07;30.71
66486;BME280;53303;47.476;8.084;2023-01-31T10:48:17;96309.56;;;19.09;30.59
66486;BME280;53303;47.476;8.084;2023-01-31T10:51:02;96306.31;;;19.11;30.83
66486;BME280;53303;47.476;8.084;2023-01-31T10:56:30;96316.59;;;19.10;30.75
66486;BME280;53303;47.476;8.084;2023-01-31T10:58:57;96319.22;;;18.99;30.74
66486;BME280;53303;47.476;8.084;2023-01-31T11:01:24;96304.50;;;19.08;30.78
66486;BME280;53303;47.476;8.084;2023-01-31T11:03:53;96297.44;;;19.07;30.64
66486;BME280;53303;47.476;8.084;2023-01-31T11:06:20;96297.53;;;19.12;30.77
66486;BME280;53303;47.476;8.084;2023-01-31T11:08:52;96287.44;;;19.09;30.82
66486;BME280;53303;47.476;8.084;2023-01-31T11:11:21;96288.94;;;19.10;30.75
66486;BME280;53303;47.476;8.084;2023-01-31T11:13:57;96295.81;;;19.15;30.74
66486;BME280;53303;47.476;8.084;2023-01-31T11:16:27;96296.56;;;19.15;30.77
66486;BME280;53303;47.476;8.084;2023-01-31T11:18:58;96294.56;;;19.16;30.80
66486;BME280;53303;47.476;8.084;2023-01-31T11:21:30;96280.72;;;19.16;30.81
66486;BME280;53303;47.476;8.084;2023-01-31T11:24:21;96290.75;;;19.13;30.75
66486;BME280;53303;47.476;8.084;2023-01-31T11:26:58;96287.72;;;19.11;30.70
66486;BME280;53303;47.476;8.084;2023-01-31T11:29:27;96279.22;;;19.15;30.80
66486;BME280;53303;47.476;8.084;2023-01-31T11:31:54;96273.97;;;19.17;30.80
66486;BME280;53303;47.476;8.084;2023-01-31T11:36:49;96255.81;;;19.16;30.75
66486;BME280;53303;47.476;8.084;2023-01-31T11:39:26;96262.22;;;19.22;30.58
66486;BME280;53303;47.476;8.084;2023-01-31T11:41:55;96262.69;;;19.20;30.78
66486;BME280;53303;47.476;8.084;2023-01-31T11:44:22;96253.38;;;19.18;30.87
66486;BME280;53303;47.476;8.084;2023-01-31T11:46:58;96251.91;;;19.23;30.71
66486;BME280;53303;47.476;8.084;2023-01-31T11:49:38;96260.47;;;19.25;30.95
66486;BME280;53303;47.476;8.084;2023-01-31T11:52:17;96278.81;;;19.22;30.66
66486;BME280;53303;47.476;8.084;2023-01-31T11:54:57;96273.28;;;19.22;30.72
66486;BME280;53303;47.476;8.084;2023-01-31T11:57:31;96267.00;;;19.21;30.80
66486;BME280;53303;47.476;8.084;2023-01-31T12:00:02;96252.59;;;19.17;30.78
66486;BME280;53303;47.476;8.084;2023-01-31T12:02:38;96259.72;;;19.24;30.97
66486;BME280;53303;47.476;8.084;2023-01-31T12:05:17;96253.91;;;19.22;30.81
66486;BME280;53303;47.476;8.084;2023-01-31T12:07:49;96257.22;;;19.26;30.67
66486;BME280;53303;47.476;8.084;2023-01-31T12:10:42;96265.25;;;19.24;30.85
66486;BME280;53303;47.476;8.084;2023-01-31T12:13:27;96265.19;;;19.18;30.82
66486;BME280;53303;47.476;8.084;2023-01-31T12:15:58;96273.84;;;19.26;30.86
66486;BME280;53303;47.476;8.084;2023-01-31T12:18:52;96260.97;;;19.23;30.87
66486;BME280;53303;47.476;8.084;2023-01-31T12:26:53;96258.69;;;19.21;30.80
66486;BME280;53303;47.476;8.084;2023-01-31T12:32:55;96253.72;;;19.26;30.88
66486;BME280;53303;47.476;8.084;2023-01-31T12:38:32;96259.72;;;19.24;30.84
66486;BME280;53303;47.476;8.084;2023-01-31T12:46:24;96260.75;;;19.27;30.95
66486;BME280;53303;47.476;8.084;2023-01-31T12:54:49;96248.94;;;19.26;30.82
66486;BME280;53303;47.476;8.084;2023-01-31T12:59:52;96238.94;;;19.29;31.08
66486;BME280;53303;47.476;8.084;2023-01-31T13:02:34;96235.38;;;19.28;30.96
66486;BME280;53303;47.476;8.084;2023-01-31T13:05:10;96228.06;;;19.25;30.97
66486;BME280;53303;47.476;8.084;2023-01-31T13:08:14;96236.84;;;19.24;30.91
66486;BME280;53303;47.476;8.084;2023-01-31T13:11:02;96231.31;;;19.24;30.96
66486;BME280;53303;47.476;8.084;2023-01-31T13:13:51;96228.34;;;19.27;30.97
66486;BME280;53303;47.476;8.084;2023-01-31T13:19:18;96203.63;;;19.24;31.06
66486;BME280;53303;47.476;8.084;2023-01-31T13:21:48;96207.16;;;19.24;30.83
66486;BME280;53303;47.476;8.084;2023-01-31T13:24:30;96206.13;;;19.21;31.04
66486;BME280;53303;47.476;8.084;2023-01-31T13:27:31;96205.63;;;19.23;31.08
66486;BME280;53303;47.476;8.084;2023-01-31T13:32:35;96194.75;;;19.19;31.18
66486;BME280;53303;47.476;8.084;2023-01-31T13:35:25;96193.06;;;19.22;31.00
66486;BME280;53303;47.476;8.084;2023-01-31T13:37:57;96204.13;;;19.22;30.86
66486;BME280;53303;47.476;8.084;2023-01-31T13:40:26;96197.06;;;19.21;31.04
66486;BME280;53303;47.476;8.084;2023-01-31T13:42:56;96196.56;;;19.23;31.13
66486;BME280;53303;47.476;8.084;2023-01-31T13:45:34;96189.53;;;19.21;31.09
66486;BME280;53303;47.476;8.084;2023-01-31T13:48:09;96178.16;;;19.19;31.11
66486;BME280;53303;47.476;8.084;2023-01-31T13:50:53;96184.97;;;19.18;31.16
66486;BME280;53303;47.476;8.084;2023-01-31T13:53:28;96189.53;;;19.21;31.10
66486;BME280;53303;47.476;8.084;2023-01-31T13:55:57;96176.19;;;19.20;31.10
66486;BME280;53303;47.476;8.084;2023-01-31T13:58:29;96187.25;;;19.20;31.14
66486;BME280;53303;47.476;8.084;2023-01-31T14:01:05;96186.75;;;19.21;31.12
66486;BME280;53303;47.476;8.084;2023-01-31T14:11:52;96192.78;;;19.20;31.26
66486;BME280;53303;47.476;8.084;2023-01-31T14:17:03;96214.13;;;19.19;31.27
66486;BME280;53303;47.476;8.084;2023-01-31T14:19:30;96201.56;;;19.18;31.23
66486;BME280;53303;47.476;8.084;2023-01-31T14:27:20;96190.97;;;19.17;31.19
66486;BME280;53303;47.476;8.084;2023-01-31T14:29:49;96198.31;;;19.20;31.38
66486;BME280;53303;47.476;8.084;2023-01-31T14:43:50;96174.31;;;19.11;31.40
66486;BME280;53303;47.476;8.084;2023-01-31T14:52:35;96177.53;;;19.10;31.30
66486;BME280;53303;47.476;8.084;2023-01-31T14:55:11;96175.31;;;19.14;31.28
66486;BME280;53303;47.476;8.084;2023-01-31T14:57:48;96177.63;;;19.15;31.40
66486;BME280;53303;47.476;8.084;2023-01-31T15:00:20;96172.28;;;19.12;31.45
66486;BME280;53303;47.476;8.084;2023-01-31T15:03:15;96185.44;;;19.17;31.32
66486;BME280;53303;47.476;8.084;2023-01-31T15:05:44;96185.16;;;19.15;31.02
66486;BME280;53303;47.476;8.084;2023-01-31T15:13:43;96182.31;;;19.09;31.35
66486;BME280;53303;47.476;8.084;2023-01-31T15:18:45;96160.47;;;19.11;31.45